Terminal Aerodrome Forecast
Issued by NWS

Home | Current Version | Previous Version | Text Only | Print | Product List | Glossary On
Versions: 1 2 3 4 5 6 7 8 9 10 11 12 13 14 15 16 17 18 19 20 21 22 23 24 25 26 27
445
FTUS43 KDTX 241317 AAA
TAFMBS
TAF AMD
KMBS 241317Z 2413/2512 05015KT 1SM -RA BR OVC004
     FM242000 04010KT 1/2SM -RA FG VV002
     FM250600 24011KT 4SM BR OVC008=

USA.gov is the U.S. government's official web portal to all federal, state and local government web resources and services.